Time;durP1;ratioP1;P1;durP2;ratioP2;P2;SDS_P1;SDS_P2;PMS_P1;PMS_P2;Temp;Humidity;BMP_temperature;BMP_pressure;BME280_temperature;BME280_humidity;BME280_pressure;Samples;Min_cycle;Max_cycle;Signal;HPM_P1;HPM_P2
2023/05/09 00:00:41;;;;;;;2.58;2.35;;;;;;;;;;6211155;28;20294;-74
2023/05/09 00:03:46;;;;;;;6.63;2.40;;;;;;;;;;6210181;28;20309;-75
2023/05/09 00:06:52;;;;;;;4.38;2.22;;;;;;;;;;6211047;28;20289;-75
2023/05/09 00:09:58;;;;;;;4.20;2.78;;;;;;;;;;6209875;28;20293;-75
2023/05/09 00:13:03;;;;;;;3.15;2.13;;;;;;;;;;6210532;28;20296;-75
2023/05/09 00:16:12;;;;;;;2.75;2.55;;;;;;;;;;6210227;28;20293;-75
2023/05/09 00:19:17;;;;;;;4.18;2.30;;;;;;;;;;6210445;28;20317;-75
2023/05/09 00:22:22;;;;;;;2.70;2.50;;;;;;;;;;6210537;28;20292;-75
2023/05/09 00:25:29;;;;;;;4.03;2.35;;;;;;;;;;6209244;28;20297;-77
2023/05/09 00:28:34;;;;;;;2.53;2.42;;;;;;;;;;6209838;28;20304;-76
2023/05/09 00:31:39;;;;;;;4.32;2.40;;;;;;;;;;6225262;28;20269;-76
2023/05/09 00:34:44;;;;;;;5.97;2.35;;;;;;;;;;6210004;28;20312;-74
2023/05/09 00:37:49;;;;;;;2.67;2.47;;;;;;;;;;6225457;28;20294;-75
2023/05/09 00:40:56;;;;;;;2.15;2.10;;;;;;;;;;6225210;28;20297;-77
2023/05/09 00:44:01;;;;;;;7.80;2.25;;;;;;;;;;6212642;28;20308;-75
2023/05/09 00:47:06;;;;;;;4.55;2.40;;;;;;;;;;6214864;28;20294;-75
2023/05/09 00:50:15;;;;;;;3.00;2.50;;;;;;;;;;6212972;28;20297;-75
2023/05/09 00:53:20;;;;;;;2.53;2.40;;;;;;;;;;6214140;28;20289;-75
2023/05/09 00:56:26;;;;;;;2.20;2.20;;;;;;;;;;6214587;28;20473;-75
2023/05/09 00:59:31;;;;;;;2.67;2.53;;;;;;;;;;6212825;28;20297;-75
2023/05/09 01:02:48;;;;;;;8.35;2.60;;;;;;;;;;6228982;28;20293;-75
2023/05/09 01:05:58;;;;;;;3.80;2.60;;;;;;;;;;6163150;28;20295;-77
2023/05/09 01:09:06;;;;;;;4.10;2.50;;;;;;;;;;6164775;28;20444;-77
2023/05/09 01:12:16;;;;;;;2.97;2.53;;;;;;;;;;6180332;28;20290;-77
2023/05/09 01:15:28;;;;;;;2.72;2.25;;;;;;;;;;6166826;28;20307;-77
2023/05/09 01:18:40;;;;;;;2.90;2.70;;;;;;;;;;6169674;28;20302;-77
2023/05/09 01:21:48;;;;;;;3.38;2.80;;;;;;;;;;6165175;28;20382;-77
2023/05/09 01:25:28;;;;;;;3.28;2.55;;;;;;;;;;6179934;28;20484;-77
2023/05/09 01:28:50;;;;;;;4.50;3.00;;;;;;;;;;6203011;28;20294;-78
2023/05/09 01:31:58;;;;;;;3.40;2.67;;;;;;;;;;6189224;28;20285;-77
2023/05/09 01:35:04;;;;;;;5.22;3.70;;;;;;;;;;6188349;28;20480;-77
2023/05/09 01:38:14;;;;;;;3.85;2.83;;;;;;;;;;6171939;28;20309;-77
2023/05/09 01:41:21;;;;;;;3.10;2.80;;;;;;;;;;6187931;28;20285;-76
2023/05/09 01:44:31;;;;;;;3.75;2.58;;;;;;;;;;6187264;28;20290;-77
2023/05/09 01:47:38;;;;;;;3.45;2.67;;;;;;;;;;6188220;28;20293;-77
2023/05/09 01:50:44;;;;;;;3.08;2.80;;;;;;;;;;6188875;28;20298;-76
2023/05/09 01:53:51;;;;;;;2.97;2.78;;;;;;;;;;6186092;28;20301;-77
2023/05/09 01:56:56;;;;;;;3.28;3.00;;;;;;;;;;6203356;28;20289;-77
2023/05/09 02:00:02;;;;;;;9.05;3.05;;;;;;;;;;6186958;28;20298;-77
2023/05/09 02:03:18;;;;;;;4.78;2.80;;;;;;;;;;6187578;28;20298;-77
2023/05/09 02:06:24;;;;;;;7.22;2.83;;;;;;;;;;6188132;28;20342;-78
2023/05/09 02:09:29;;;;;;;4.18;3.38;;;;;;;;;;6186353;28;20309;-77
2023/05/09 02:12:35;;;;;;;6.78;3.42;;;;;;;;;;6171010;28;20538;-77
2023/05/09 02:15:40;;;;;;;3.03;2.83;;;;;;;;;;6170078;28;20313;-76
2023/05/09 02:18:47;;;;;;;4.18;3.63;;;;;;;;;;6187210;28;20294;-76
2023/05/09 02:21:52;;;;;;;4.10;3.80;;;;;;;;;;6188117;28;20289;-78
2023/05/09 02:24:59;;;;;;;3.92;3.40;;;;;;;;;;6187379;28;20310;-77
2023/05/09 02:28:04;;;;;;;4.10;3.20;;;;;;;;;;6192134;28;20294;-76
2023/05/09 02:31:11;;;;;;;3.65;3.35;;;;;;;;;;6187931;28;20416;-77
2023/05/09 02:34:17;;;;;;;3.42;3.25;;;;;;;;;;6194068;28;20305;-76
2023/05/09 02:37:23;;;;;;;5.38;3.20;;;;;;;;;;6197512;28;20297;-77
2023/05/09 02:40:29;;;;;;;4.07;3.55;;;;;;;;;;6195747;28;20305;-77
2023/05/09 02:43:34;;;;;;;7.45;4.30;;;;;;;;;;6190927;28;20441;-76
2023/05/09 02:46:39;;;;;;;10.23;3.95;;;;;;;;;;6187361;28;20311;-77
2023/05/09 02:49:46;;;;;;;6.43;4.10;;;;;;;;;;6185528;28;20313;-77
2023/05/09 02:52:52;;;;;;;4.57;3.72;;;;;;;;;;6185195;28;20286;-77
2023/05/09 02:55:58;;;;;;;6.25;4.10;;;;;;;;;;6185406;28;20297;-77
2023/05/09 02:59:03;;;;;;;4.22;3.83;;;;;;;;;;6184985;28;20524;-77
2023/05/09 03:02:10;;;;;;;4.95;4.10;;;;;;;;;;6168536;28;20301;-77
2023/05/09 03:05:17;;;;;;;4.32;3.92;;;;;;;;;;6183628;28;20301;-76
2023/05/09 03:08:23;;;;;;;4.57;3.90;;;;;;;;;;6186309;28;20286;-76
2023/05/09 03:11:28;;;;;;;7.32;4.28;;;;;;;;;;6186525;28;20309;-76
2023/05/09 03:14:33;;;;;;;4.55;3.95;;;;;;;;;;6170280;28;20293;-76
2023/05/09 03:17:40;;;;;;;4.40;3.50;;;;;;;;;;6169083;28;20289;-77
2023/05/09 03:20:46;;;;;;;10.45;4.35;;;;;;;;;;6185418;28;20293;-78
2023/05/09 03:23:52;;;;;;;5.25;4.28;;;;;;;;;;6168593;28;20340;-76
2023/05/09 03:26:57;;;;;;;4.53;3.95;;;;;;;;;;6186677;28;20582;-76
2023/05/09 03:30:02;;;;;;;4.32;3.97;;;;;;;;;;6185255;28;20471;-76
2023/05/09 03:33:08;;;;;;;8.63;4.10;;;;;;;;;;6202513;28;20590;-78
2023/05/09 03:36:16;;;;;;;11.07;4.25;;;;;;;;;;6169707;28;20301;-76
2023/05/09 03:39:21;;;;;;;7.13;4.65;;;;;;;;;;6175591;28;20297;-76
2023/05/09 03:42:31;;;;;;;4.40;4.05;;;;;;;;;;6184726;28;20294;-77
2023/05/09 03:45:39;;;;;;;5.50;4.43;;;;;;;;;;6184955;28;20302;-75
2023/05/09 03:48:46;;;;;;;7.13;4.05;;;;;;;;;;6169021;28;20377;-77
2023/05/09 03:51:53;;;;;;;8.02;4.32;;;;;;;;;;6185162;28;20461;-77
2023/05/09 03:54:58;;;;;;;8.25;4.43;;;;;;;;;;6184251;28;20246;-78
2023/05/09 03:58:07;;;;;;;9.43;4.40;;;;;;;;;;6185021;28;20293;-77
2023/05/09 04:01:16;;;;;;;17.20;6.05;;;;;;;;;;6185414;28;20309;-77
2023/05/09 04:04:22;;;;;;;8.52;4.53;;;;;;;;;;6176256;28;20314;-77
2023/05/09 04:07:29;;;;;;;10.65;4.07;;;;;;;;;;6192041;28;20274;-76
2023/05/09 04:10:35;;;;;;;5.65;4.45;;;;;;;;;;6176272;28;20290;-77
2023/05/09 04:13:41;;;;;;;7.55;4.28;;;;;;;;;;6160373;28;20295;-77
2023/05/09 04:17:03;;;;;;;6.28;4.38;;;;;;;;;;6161874;28;20303;-77
2023/05/09 04:20:10;;;;;;;4.93;4.47;;;;;;;;;;6165249;28;20298;-77
2023/05/09 04:23:17;;;;;;;7.82;3.85;;;;;;;;;;6165445;28;20298;-76
2023/05/09 04:26:23;;;;;;;7.43;4.22;;;;;;;;;;6143148;28;20294;-78
2023/05/09 04:29:31;;;;;;;9.85;4.82;;;;;;;;;;6157117;28;20295;-78
2023/05/09 04:32:37;;;;;;;8.60;4.43;;;;;;;;;;6142747;28;20291;-77
2023/05/09 04:35:43;;;;;;;7.85;3.65;;;;;;;;;;6157037;28;20308;-76
2023/05/09 04:38:49;;;;;;;7.80;3.47;;;;;;;;;;6173197;28;20294;-77
2023/05/09 04:42:00;;;;;;;9.40;4.15;;;;;;;;;;6172836;28;20291;-77
2023/05/09 04:45:06;;;;;;;7.50;3.30;;;;;;;;;;6156608;28;20303;-77
2023/05/09 04:48:13;;;;;;;4.82;3.60;;;;;;;;;;6144450;28;21994;-76
2023/05/09 04:51:18;;;;;;;19.15;4.13;;;;;;;;;;6178920;28;20296;-78
2023/05/09 04:54:25;;;;;;;12.13;3.85;;;;;;;;;;6156791;28;20475;-77
2023/05/09 04:57:31;;;;;;;12.73;3.70;;;;;;;;;;6172537;28;20295;-76
2023/05/09 05:00:36;;;;;;;10.05;3.75;;;;;;;;;;6172361;28;20303;-77
2023/05/09 05:03:44;;;;;;;20.00;3.55;;;;;;;;;;6163809;28;20329;-77
2023/05/09 05:06:49;;;;;;;4.40;2.83;;;;;;;;;;6180567;28;20317;-77
2023/05/09 05:09:55;;;;;;;5.43;2.92;;;;;;;;;;6166984;28;20302;-76
2023/05/09 05:13:01;;;;;;;3.25;3.05;;;;;;;;;;6204193;28;20290;-76
2023/05/09 05:16:07;;;;;;;6.53;3.13;;;;;;;;;;6190752;28;20294;-77
2023/05/09 05:19:13;;;;;;;11.65;3.30;;;;;;;;;;6187767;28;20560;-78
2023/05/09 05:22:19;;;;;;;9.38;3.33;;;;;;;;;;6188724;28;20325;-77
2023/05/09 05:25:26;;;;;;;11.60;3.75;;;;;;;;;;6188642;28;20305;-77
2023/05/09 05:28:32;;;;;;;13.45;3.60;;;;;;;;;;6202615;28;20546;-78
2023/05/09 05:31:37;;;;;;;4.50;3.30;;;;;;;;;;6203651;28;20278;-76
2023/05/09 05:34:43;;;;;;;14.07;3.65;;;;;;;;;;6187379;28;20298;-77
2023/05/09 05:37:48;;;;;;;6.63;3.88;;;;;;;;;;6203874;28;20289;-78
2023/05/09 05:40:55;;;;;;;12.85;3.95;;;;;;;;;;6170558;28;20294;-77
2023/05/09 05:44:02;;;;;;;9.52;3.40;;;;;;;;;;6203716;28;20294;-76
2023/05/09 05:47:07;;;;;;;6.72;3.25;;;;;;;;;;6189282;28;20290;-76
2023/05/09 05:50:14;;;;;;;15.85;3.78;;;;;;;;;;6187891;28;20585;-77
2023/05/09 05:53:20;;;;;;;21.10;4.00;;;;;;;;;;6172115;28;20293;-77
2023/05/09 05:56:29;;;;;;;6.78;3.40;;;;;;;;;;6204095;28;20297;-76
2023/05/09 05:59:35;;;;;;;7.07;3.20;;;;;;;;;;6205182;28;20294;-76
2023/05/09 06:02:43;;;;;;;10.05;3.40;;;;;;;;;;6207932;28;20289;-77
2023/05/09 06:05:56;;;;;;;3.22;2.97;;;;;;;;;;6187131;28;20298;-76
2023/05/09 06:09:03;;;;;;;4.25;2.90;;;;;;;;;;6203721;28;20497;-77
2023/05/09 06:12:10;;;;;;;3.72;3.20;;;;;;;;;;6189820;28;20297;-79
2023/05/09 06:15:16;;;;;;;6.72;3.42;;;;;;;;;;6201413;28;20302;-77
2023/05/09 06:18:24;;;;;;;6.38;3.10;;;;;;;;;;6203528;28;20302;-77
2023/05/09 06:21:29;;;;;;;7.97;3.58;;;;;;;;;;6203709;28;20298;-78
2023/05/09 06:24:34;;;;;;;9.65;3.28;;;;;;;;;;6188233;28;20485;-77
2023/05/09 06:27:43;;;;;;;12.77;3.65;;;;;;;;;;6188297;28;20302;-77
2023/05/09 06:30:48;;;;;;;10.10;3.63;;;;;;;;;;6187933;28;20610;-77
2023/05/09 06:33:53;;;;;;;5.95;3.25;;;;;;;;;;6187497;28;20297;-77
2023/05/09 06:36:59;;;;;;;3.42;2.88;;;;;;;;;;6188001;28;20366;-76
2023/05/09 06:40:05;;;;;;;7.32;3.78;;;;;;;;;;6187024;28;20342;-77
2023/05/09 06:43:12;;;;;;;6.70;3.25;;;;;;;;;;6187093;28;20345;-78
2023/05/09 06:46:18;;;;;;;3.83;2.92;;;;;;;;;;6187594;28;20294;-76
2023/05/09 06:49:23;;;;;;;5.32;3.88;;;;;;;;;;6186823;28;20298;-77
2023/05/09 06:52:28;;;;;;;5.20;3.40;;;;;;;;;;6186716;28;20274;-78
2023/05/09 06:55:33;;;;;;;7.03;3.28;;;;;;;;;;6185954;28;20489;-78
2023/05/09 06:58:40;;;;;;;9.57;3.60;;;;;;;;;;6186546;28;20301;-78
2023/05/09 07:01:45;;;;;;;6.15;2.80;;;;;;;;;;6185821;28;20451;-77
2023/05/09 07:04:51;;;;;;;9.20;2.92;;;;;;;;;;6186237;28;20462;-76
2023/05/09 07:07:56;;;;;;;7.68;3.38;;;;;;;;;;6186347;28;20317;-77
2023/05/09 07:11:01;;;;;;;8.18;3.35;;;;;;;;;;6192951;28;20286;-76
2023/05/09 07:14:08;;;;;;;3.28;2.83;;;;;;;;;;6186627;28;20306;-76
2023/05/09 07:17:13;;;;;;;5.53;2.65;;;;;;;;;;6170578;28;20744;-77
2023/05/09 07:20:27;;;;;;;7.57;3.22;;;;;;;;;;6185210;28;20293;-77
2023/05/09 07:23:32;;;;;;;7.35;2.78;;;;;;;;;;6186950;28;20293;-78
2023/05/09 07:26:38;;;;;;;12.07;2.90;;;;;;;;;;6187142;28;20580;-77
2023/05/09 07:29:44;;;;;;;4.53;2.90;;;;;;;;;;6186857;28;20565;-75
2023/05/09 07:32:50;;;;;;;5.40;2.92;;;;;;;;;;6187032;28;20335;-77
2023/05/09 07:35:55;;;;;;;3.70;2.55;;;;;;;;;;6186216;28;20294;-77
2023/05/09 07:39:01;;;;;;;4.85;3.10;;;;;;;;;;6186308;28;20381;-77
2023/05/09 07:42:07;;;;;;;9.35;2.47;;;;;;;;;;6186947;28;20293;-77
2023/05/09 07:45:14;;;;;;;7.57;2.67;;;;;;;;;;6186250;28;20305;-78
2023/05/09 07:48:19;;;;;;;7.28;2.95;;;;;;;;;;6186464;28;20298;-77
2023/05/09 07:51:25;;;;;;;4.07;2.83;;;;;;;;;;6186982;28;20494;-77
2023/05/09 07:54:30;;;;;;;9.77;3.05;;;;;;;;;;6190835;28;20340;-76
2023/05/09 07:57:35;;;;;;;4.00;2.83;;;;;;;;;;6191430;28;20297;-78
2023/05/09 08:00:42;;;;;;;12.05;2.95;;;;;;;;;;6191063;28;20294;-76
2023/05/09 08:03:47;;;;;;;8.07;3.00;;;;;;;;;;6189741;28;20621;-77
2023/05/09 08:06:53;;;;;;;2.80;2.60;;;;;;;;;;6173376;28;20605;-77
2023/05/09 08:09:58;;;;;;;4.95;2.80;;;;;;;;;;6189275;28;20294;-77
2023/05/09 08:13:03;;;;;;;5.88;2.65;;;;;;;;;;6189389;28;20317;-77
2023/05/09 08:16:12;;;;;;;4.13;3.03;;;;;;;;;;6190126;28;20293;-77
2023/05/09 08:19:19;;;;;;;9.18;2.60;;;;;;;;;;6189567;28;20298;-78
2023/05/09 08:22:25;;;;;;;8.43;2.53;;;;;;;;;;6191871;28;20302;-76
2023/05/09 08:25:32;;;;;;;4.22;2.97;;;;;;;;;;6191864;28;20317;-77
2023/05/09 08:28:38;;;;;;;35.38;3.88;;;;;;;;;;6205800;28;20293;-76
2023/05/09 08:31:44;;;;;;;6.57;2.83;;;;;;;;;;6190905;28;20281;-76
2023/05/09 08:34:50;;;;;;;4.90;2.97;;;;;;;;;;6185578;28;20296;-77
2023/05/09 08:37:55;;;;;;;9.75;2.75;;;;;;;;;;6203125;28;20298;-76
2023/05/09 08:41:01;;;;;;;10.25;3.10;;;;;;;;;;6191027;28;20286;-77
2023/05/09 08:44:07;;;;;;;7.30;3.00;;;;;;;;;;6189937;28;20290;-76
2023/05/09 08:47:14;;;;;;;184.32;9.07;;;;;;;;;;6191647;28;20597;-77
2023/05/09 08:50:19;;;;;;;17.88;2.80;;;;;;;;;;6190142;28;20293;-76
2023/05/09 08:53:25;;;;;;;10.50;2.60;;;;;;;;;;6189422;28;20289;-76
2023/05/09 08:56:31;;;;;;;8.93;2.78;;;;;;;;;;6190210;28;20480;-77
2023/05/09 08:59:37;;;;;;;13.45;2.80;;;;;;;;;;6205519;28;20234;-77
2023/05/09 09:02:43;;;;;;;4.78;2.13;;;;;;;;;;6191364;28;20318;-77
2023/05/09 09:05:49;;;;;;;6.38;2.10;;;;;;;;;;6126000;28;1197589;-77
2023/05/09 09:08:56;;;;;;;2.63;2.10;;;;;;;;;;6166452;28;20301;-76
2023/05/09 09:12:02;;;;;;;10.07;3.22;;;;;;;;;;6167428;28;20290;-76
2023/05/09 09:15:11;;;;;;;1.92;1.83;;;;;;;;;;6166321;28;20310;-77
2023/05/09 09:18:22;;;;;;;8.10;2.20;;;;;;;;;;6166687;28;20309;-78
2023/05/09 09:21:28;;;;;;;2.55;2.33;;;;;;;;;;6167352;28;20590;-77
2023/05/09 09:24:33;;;;;;;11.18;2.13;;;;;;;;;;6165821;28;20302;-76
2023/05/09 09:27:38;;;;;;;8.43;2.50;;;;;;;;;;6166071;28;20480;-77
2023/05/09 09:30:47;;;;;;;3.47;1.90;;;;;;;;;;6165300;28;20314;-77
2023/05/09 09:34:00;;;;;;;2.90;2.13;;;;;;;;;;6168422;28;20287;-76
2023/05/09 09:37:08;;;;;;;2.97;2.30;;;;;;;;;;6168578;28;20358;-76
2023/05/09 09:40:15;;;;;;;6.53;2.25;;;;;;;;;;6195688;28;20353;-75
2023/05/09 09:43:26;;;;;;;10.07;2.70;;;;;;;;;;6166036;28;20299;-77
2023/05/09 09:46:42;;;;;;;4.40;2.10;;;;;;;;;;6154876;28;20298;-77
2023/05/09 09:49:53;;;;;;;3.03;1.88;;;;;;;;;;6160358;28;20336;-77
2023/05/09 09:52:59;;;;;;;7.13;2.50;;;;;;;;;;6190741;28;20298;-76
2023/05/09 09:56:04;;;;;;;4.05;2.53;;;;;;;;;;6164990;28;20286;-76
2023/05/09 09:59:12;;;;;;;2.42;2.13;;;;;;;;;;6163797;28;20310;-76
2023/05/09 10:02:24;;;;;;;8.27;2.42;;;;;;;;;;6164938;28;20362;-76
2023/05/09 10:05:33;;;;;;;2.55;2.35;;;;;;;;;;6183217;28;20307;-76
2023/05/09 10:08:38;;;;;;;2.50;2.30;;;;;;;;;;6189117;28;20298;-76
2023/05/09 10:11:43;;;;;;;61.75;4.20;;;;;;;;;;6189550;28;20281;-75
2023/05/09 10:14:49;;;;;;;4.30;2.20;;;;;;;;;;6187825;28;20294;-76
2023/05/09 10:17:56;;;;;;;5.63;2.65;;;;;;;;;;6187160;28;20305;-77
2023/05/09 10:21:04;;;;;;;14.13;2.88;;;;;;;;;;6188389;28;20462;-77
2023/05/09 10:24:10;;;;;;;8.20;2.35;;;;;;;;;;6187561;28;20286;-75
2023/05/09 10:27:18;;;;;;;12.93;2.80;;;;;;;;;;6187443;28;20290;-77
2023/05/09 10:30:28;;;;;;;6.05;2.90;;;;;;;;;;6155598;28;20302;-77
2023/05/09 10:33:42;;;;;;;10.10;2.95;;;;;;;;;;6163837;28;20461;-77
2023/05/09 10:36:49;;;;;;;5.10;2.63;;;;;;;;;;6162926;28;20298;-77
2023/05/09 10:39:55;;;;;;;14.07;2.80;;;;;;;;;;6162594;28;20299;-76
2023/05/09 10:43:00;;;;;;;11.50;2.85;;;;;;;;;;6163938;28;20286;-77
2023/05/09 10:46:06;;;;;;;7.38;2.63;;;;;;;;;;6170682;28;20375;-78
2023/05/09 10:49:11;;;;;;;20.48;3.05;;;;;;;;;;6141487;28;20701;-77
2023/05/09 10:52:18;;;;;;;13.82;3.20;;;;;;;;;;6139893;29;20295;-77
2023/05/09 10:55:23;;;;;;;31.65;4.47;;;;;;;;;;6139130;28;20302;-77
2023/05/09 10:58:29;;;;;;;17.65;3.35;;;;;;;;;;6162355;28;20362;-77
2023/05/09 11:01:36;;;;;;;40.05;4.13;;;;;;;;;;6163422;28;20307;-78
2023/05/09 11:04:43;;;;;;;14.35;2.92;;;;;;;;;;6162529;28;20293;-78
2023/05/09 11:08:19;;;;;;;16.95;2.58;;;;;;;;;;6163588;28;20294;-77
2023/05/09 11:11:25;;;;;;;21.00;2.75;;;;;;;;;;6175631;28;20594;-75
2023/05/09 11:14:38;;;;;;;20.38;3.20;;;;;;;;;;6186635;28;20289;-77
2023/05/09 11:17:43;;;;;;;10.18;2.97;;;;;;;;;;6186674;28;20302;-77
2023/05/09 11:20:50;;;;;;;10.65;2.80;;;;;;;;;;6186495;28;20573;-78
2023/05/09 11:23:56;;;;;;;18.13;2.83;;;;;;;;;;6186682;28;20325;-77
2023/05/09 11:27:03;;;;;;;9.73;2.90;;;;;;;;;;6186723;28;20530;-77
2023/05/09 11:30:10;;;;;;;8.77;2.85;;;;;;;;;;6188119;28;20724;-77
2023/05/09 11:33:28;;;;;;;8.35;2.50;;;;;;;;;;6188183;28;20326;-76
2023/05/09 11:36:35;;;;;;;14.00;3.42;;;;;;;;;;6186923;28;20297;-77
2023/05/09 11:39:59;;;;;;;18.90;2.92;;;;;;;;;;6187094;28;20297;-77
2023/05/09 11:43:04;;;;;;;13.88;3.50;;;;;;;;;;6189713;28;20301;-78
2023/05/09 11:46:09;;;;;;;17.23;3.45;;;;;;;;;;6187684;28;20548;-77
2023/05/09 11:49:14;;;;;;;11.63;3.00;;;;;;;;;;6188258;28;20297;-77
2023/05/09 11:52:20;;;;;;;19.33;3.80;;;;;;;;;;6187875;28;20293;-77
2023/05/09 11:55:28;;;;;;;37.03;3.75;;;;;;;;;;6187410;28;20302;-76
2023/05/09 11:58:34;;;;;;;15.40;3.60;;;;;;;;;;6192777;28;20303;-77
2023/05/09 12:01:39;;;;;;;11.85;3.17;;;;;;;;;;6169700;28;20293;-76
2023/05/09 12:04:45;;;;;;;9.43;3.20;;;;;;;;;;6186772;28;20297;-77
2023/05/09 12:07:51;;;;;;;10.70;3.50;;;;;;;;;;6187676;28;20404;-77
2023/05/09 12:11:08;;;;;;;11.55;3.40;;;;;;;;;;6187142;28;20561;-77
2023/05/09 12:14:27;;;;;;;21.08;3.33;;;;;;;;;;6187305;28;20479;-77
2023/05/09 12:17:33;;;;;;;10.27;3.25;;;;;;;;;;6170544;28;20298;-77
2023/05/09 12:20:42;;;;;;;10.40;3.45;;;;;;;;;;6186548;28;20302;-77
2023/05/09 12:23:50;;;;;;;7.55;3.22;;;;;;;;;;6186514;28;20294;-77
2023/05/09 12:26:59;;;;;;;7.30;3.30;;;;;;;;;;6186775;28;20610;-77
2023/05/09 12:30:07;;;;;;;5.35;3.78;;;;;;;;;;6185257;28;20314;-78
2023/05/09 12:33:12;;;;;;;5.15;3.28;;;;;;;;;;6186984;28;20457;-78
2023/05/09 12:36:17;;;;;;;17.50;3.65;;;;;;;;;;6186139;28;20306;-78
2023/05/09 12:39:23;;;;;;;14.38;3.50;;;;;;;;;;6188988;28;20290;-77
2023/05/09 12:42:30;;;;;;;19.25;3.28;;;;;;;;;;6191282;28;20305;-77
2023/05/09 12:45:36;;;;;;;17.67;3.30;;;;;;;;;;6190516;28;20294;-77
2023/05/09 12:48:42;;;;;;;10.90;3.20;;;;;;;;;;6190260;28;20547;-77
2023/05/09 12:51:50;;;;;;;6.97;3.50;;;;;;;;;;6191158;28;20297;-77
2023/05/09 12:54:55;;;;;;;7.13;2.92;;;;;;;;;;6189716;28;20305;-77
2023/05/09 12:58:03;;;;;;;12.02;4.07;;;;;;;;;;6191484;28;20381;-77
2023/05/09 13:01:10;;;;;;;5.63;3.35;;;;;;;;;;6190424;28;20302;-78
2023/05/09 13:04:15;;;;;;;4.22;3.65;;;;;;;;;;6189578;28;20298;-78
2023/05/09 13:07:21;;;;;;;11.60;3.30;;;;;;;;;;6178150;28;20294;-77
2023/05/09 13:10:27;;;;;;;9.27;3.17;;;;;;;;;;6198459;28;20238;-78
2023/05/09 13:13:34;;;;;;;9.95;3.40;;;;;;;;;;6198401;28;20270;-78
2023/05/09 13:16:39;;;;;;;9.93;3.17;;;;;;;;;;6197610;28;20266;-78
2023/05/09 13:19:45;;;;;;;19.48;3.75;;;;;;;;;;6190676;28;20462;-77
2023/05/09 13:22:50;;;;;;;10.88;3.05;;;;;;;;;;6191738;28;20281;-78
2023/05/09 13:25:55;;;;;;;6.32;3.28;;;;;;;;;;6191040;28;20298;-78
2023/05/09 13:29:02;;;;;;;5.28;3.10;;;;;;;;;;6190462;28;20289;-80
2023/05/09 13:32:07;;;;;;;4.50;2.92;;;;;;;;;;6189513;28;20293;-76
2023/05/09 13:35:12;;;;;;;8.73;3.10;;;;;;;;;;6190247;28;20483;-77
2023/05/09 13:38:18;;;;;;;9.88;3.05;;;;;;;;;;6205429;28;20294;-77
2023/05/09 13:41:23;;;;;;;6.40;3.20;;;;;;;;;;6188848;28;20459;-79
2023/05/09 13:44:30;;;;;;;7.28;3.47;;;;;;;;;;6189696;28;20322;-76
2023/05/09 13:47:36;;;;;;;8.30;3.08;;;;;;;;;;6172962;28;20298;-76
2023/05/09 13:50:42;;;;;;;4.60;2.70;;;;;;;;;;6203407;28;20311;-76
2023/05/09 13:53:47;;;;;;;10.05;3.67;;;;;;;;;;6189368;28;20297;-76
2023/05/09 13:56:53;;;;;;;69.85;6.63;;;;;;;;;;6190378;28;20294;-76
2023/05/09 14:00:00;;;;;;;20.85;3.75;;;;;;;;;;6189171;28;20298;-83
2023/05/09 14:03:05;;;;;;;89.97;6.15;;;;;;;;;;6191745;28;20294;-81
2023/05/09 14:06:12;;;;;;;38.25;4.07;;;;;;;;;;6189576;28;20396;-76
2023/05/09 14:09:21;;;;;;;38.95;3.97;;;;;;;;;;6188385;28;20294;-78
2023/05/09 14:12:26;;;;;;;346.13;17.52;;;;;;;;;;6189011;28;20293;-78
2023/05/09 14:15:34;;;;;;;18.85;3.33;;;;;;;;;;6203714;28;20310;-77
2023/05/09 14:18:39;;;;;;;22.88;3.83;;;;;;;;;;6194080;28;20285;-79
2023/05/09 14:21:46;;;;;;;18.20;4.07;;;;;;;;;;6192148;28;20306;-79
2023/05/09 14:24:52;;;;;;;18.55;3.97;;;;;;;;;;6188366;28;20590;-78
2023/05/09 14:27:58;;;;;;;22.52;4.20;;;;;;;;;;6187805;28;20297;-78
2023/05/09 14:31:05;;;;;;;11.13;2.90;;;;;;;;;;6188458;28;20306;-79
2023/05/09 14:34:12;;;;;;;6.72;3.05;;;;;;;;;;6188456;28;20586;-78
2023/05/09 14:37:17;;;;;;;8.23;3.08;;;;;;;;;;6188798;28;20294;-78
2023/05/09 14:40:22;;;;;;;7.40;3.50;;;;;;;;;;6200200;28;20293;-78
2023/05/09 14:43:27;;;;;;;3.45;2.67;;;;;;;;;;6188378;28;20269;-78
2023/05/09 14:46:35;;;;;;;12.82;3.05;;;;;;;;;;6188157;28;20318;-78
2023/05/09 14:49:41;;;;;;;4.55;2.97;;;;;;;;;;6187813;28;20290;-79
2023/05/09 14:52:46;;;;;;;12.18;3.35;;;;;;;;;;6188378;28;20305;-78
2023/05/09 14:55:51;;;;;;;3.72;2.97;;;;;;;;;;6187791;28;20445;-77
2023/05/09 14:58:57;;;;;;;4.22;3.53;;;;;;;;;;6187702;28;20289;-78
2023/05/09 15:02:04;;;;;;;10.13;3.08;;;;;;;;;;6187568;28;20298;-79
2023/05/09 15:05:12;;;;;;;7.38;3.33;;;;;;;;;;6187184;28;20321;-78
2023/05/09 15:08:17;;;;;;;5.57;3.38;;;;;;;;;;6187865;28;20362;-79
2023/05/09 15:11:23;;;;;;;7.43;3.60;;;;;;;;;;6186767;28;20297;-78
2023/05/09 15:14:32;;;;;;;4.88;3.47;;;;;;;;;;6187227;28;20298;-78
2023/05/09 15:17:38;;;;;;;7.22;3.13;;;;;;;;;;6187075;28;20451;-78
2023/05/09 15:20:44;;;;;;;3.47;3.28;;;;;;;;;;6187282;28;20289;-78
2023/05/09 15:23:49;;;;;;;5.28;3.50;;;;;;;;;;6186436;28;20431;-78
2023/05/09 15:26:54;;;;;;;6.97;3.65;;;;;;;;;;6187506;28;20337;-78
2023/05/09 15:30:00;;;;;;;8.35;4.35;;;;;;;;;;6192458;28;20577;-78
2023/05/09 15:33:07;;;;;;;5.85;3.70;;;;;;;;;;6203509;28;20290;-78
2023/05/09 15:36:12;;;;;;;6.32;3.50;;;;;;;;;;6186010;28;20310;-78
2023/05/09 15:39:17;;;;;;;6.88;3.45;;;;;;;;;;6187258;28;20293;-79
2023/05/09 15:42:24;;;;;;;11.48;3.40;;;;;;;;;;6187384;28;20301;-78
2023/05/09 15:45:29;;;;;;;7.47;3.70;;;;;;;;;;6186914;28;20298;-79
2023/05/09 15:48:37;;;;;;;3.72;3.50;;;;;;;;;;6201997;28;20373;-78
2023/05/09 15:51:42;;;;;;;13.57;3.33;;;;;;;;;;6186061;28;20355;-78
2023/05/09 15:54:47;;;;;;;9.88;3.47;;;;;;;;;;6187145;28;20293;-78
2023/05/09 15:57:52;;;;;;;3.88;3.58;;;;;;;;;;6186361;28;20294;-79
2023/05/09 16:00:57;;;;;;;11.70;3.67;;;;;;;;;;6185982;28;20297;-78
2023/05/09 16:04:04;;;;;;;5.68;3.40;;;;;;;;;;6185911;28;20550;-77
2023/05/09 16:07:11;;;;;;;7.25;3.70;;;;;;;;;;6186216;28;20313;-77
2023/05/09 16:10:16;;;;;;;3.78;3.47;;;;;;;;;;6186103;28;20317;-78
2023/05/09 16:13:22;;;;;;;5.28;3.40;;;;;;;;;;6188386;28;20293;-77
2023/05/09 16:16:27;;;;;;;10.68;4.10;;;;;;;;;;6189735;28;20301;-78
2023/05/09 16:19:35;;;;;;;6.15;4.10;;;;;;;;;;6190723;28;20294;-76
2023/05/09 16:22:40;;;;;;;10.32;4.75;;;;;;;;;;6205310;28;20293;-77
2023/05/09 16:25:48;;;;;;;5.82;3.15;;;;;;;;;;6190182;28;20309;-77
2023/05/09 16:28:53;;;;;;;6.43;3.63;;;;;;;;;;6190435;28;20293;-75
2023/05/09 16:31:58;;;;;;;4.78;3.70;;;;;;;;;;6189912;28;20527;-76
2023/05/09 16:35:06;;;;;;;14.98;3.83;;;;;;;;;;6191911;28;20294;-77
2023/05/09 16:38:13;;;;;;;6.25;4.00;;;;;;;;;;6190396;28;20301;-75
2023/05/09 16:41:18;;;;;;;6.38;3.50;;;;;;;;;;6193470;28;20582;-75
2023/05/09 16:44:24;;;;;;;8.90;3.65;;;;;;;;;;6189967;28;20297;-77
2023/05/09 16:47:29;;;;;;;9.25;3.33;;;;;;;;;;6190101;28;20325;-78
2023/05/09 16:50:36;;;;;;;4.43;3.38;;;;;;;;;;6189581;28;20289;-78
2023/05/09 16:53:42;;;;;;;4.90;4.32;;;;;;;;;;6190128;28;20317;-78
2023/05/09 16:56:47;;;;;;;7.75;3.78;;;;;;;;;;6190114;28;20564;-78
2023/05/09 16:59:53;;;;;;;4.30;3.47;;;;;;;;;;6190059;28;20289;-78
2023/05/09 17:02:58;;;;;;;6.88;4.20;;;;;;;;;;6188373;28;20246;-79
2023/05/09 17:06:05;;;;;;;4.32;3.92;;;;;;;;;;6172749;28;20290;-78
2023/05/09 17:09:10;;;;;;;8.00;5.53;;;;;;;;;;6189733;28;20297;-77
2023/05/09 17:12:16;;;;;;;5.60;4.95;;;;;;;;;;6173625;28;20302;-79
2023/05/09 17:15:22;;;;;;;5.53;4.82;;;;;;;;;;6189584;28;20558;-79
2023/05/09 17:18:27;;;;;;;11.35;4.57;;;;;;;;;;6190052;28;20297;-78
2023/05/09 17:21:43;;;;;;;10.20;3.58;;;;;;;;;;6188831;28;20293;-78
2023/05/09 17:24:48;;;;;;;10.70;3.28;;;;;;;;;;6189063;28;20321;-78
2023/05/09 17:27:54;;;;;;;5.57;3.30;;;;;;;;;;6190143;28;20293;-77
2023/05/09 17:30:59;;;;;;;3.35;2.80;;;;;;;;;;6188823;28;20566;-77
2023/05/09 17:34:04;;;;;;;5.22;2.85;;;;;;;;;;6189364;28;20313;-76
2023/05/09 17:37:12;;;;;;;5.50;3.20;;;;;;;;;;6190333;28;20601;-78
2023/05/09 17:40:17;;;;;;;8.10;2.90;;;;;;;;;;6189301;28;20293;-76
2023/05/09 17:43:22;;;;;;;7.45;2.92;;;;;;;;;;6189887;28;20293;-77
2023/05/09 17:46:28;;;;;;;3.47;2.50;;;;;;;;;;6188757;28;20436;-78
2023/05/09 17:49:33;;;;;;;5.13;2.90;;;;;;;;;;6189167;28;20499;-78
2023/05/09 17:52:40;;;;;;;9.27;3.10;;;;;;;;;;6195501;28;20270;-77
2023/05/09 17:55:45;;;;;;;9.20;2.63;;;;;;;;;;6171235;28;20293;-79
2023/05/09 17:58:51;;;;;;;10.35;2.97;;;;;;;;;;6204237;28;20286;-79
2023/05/09 18:01:59;;;;;;;10.18;3.00;;;;;;;;;;6189400;28;20297;-79
2023/05/09 18:05:05;;;;;;;6.70;3.10;;;;;;;;;;6188262;28;20289;-78
2023/05/09 18:08:14;;;;;;;15.27;4.00;;;;;;;;;;6187799;28;20294;-78
2023/05/09 18:11:21;;;;;;;19.33;3.67;;;;;;;;;;6188226;28;20293;-79
2023/05/09 18:14:27;;;;;;;5.53;3.60;;;;;;;;;;6188457;28;20305;-77
2023/05/09 18:17:32;;;;;;;9.93;3.30;;;;;;;;;;6187737;28;20302;-77
2023/05/09 18:20:37;;;;;;;4.90;3.05;;;;;;;;;;6187233;28;20460;-76
2023/05/09 18:23:44;;;;;;;6.90;3.90;;;;;;;;;;6170313;28;20306;-80
2023/05/09 18:26:50;;;;;;;14.68;3.50;;;;;;;;;;6188622;28;20289;-78
2023/05/09 18:29:55;;;;;;;10.85;3.40;;;;;;;;;;6187944;28;20298;-79
2023/05/09 18:33:01;;;;;;;20.80;3.72;;;;;;;;;;6188873;28;20626;-75